Latest Coastal Weather Observations for Green Cape

IDN60701

Issued at 8:31 pm EST Thursday 24 August 2017 (issued every 10 minutes, with the page automatically refreshed every 10 minutes)

About coastal observations | Map of coastal stations | Coastal observations for NSW | Marine services | Other Formats
Station Details ID: 069137 Name: GREEN CAPE AWS Lat: -37.26 Lon: 150.05 Height: 19.4 m
Data from the previous 72 hours. | See also: Recent months at Green Cape
Date/Time
EST
Temp
°C
Wind Pressure Rain since
9am
mm
Weather Cloud Vis
km
Sea
Height
m
Swell
Dir  Spd
kts
Gust
kts
hPa Trend Height
m
Period
s
Dir
24/08:30pm 11.2 WSW 14 15 1023.2 - 0.0 - - - - - - -
24/08:00pm 11.2 WSW 17 20 1022.9 - 0.0 - - - - - - -
24/07:30pm 11.2 WSW 17 21 1022.6 - 0.0 - - - - - - -
24/07:00pm 11.4 WSW 16 20 1022.4 - 0.0 - - - - - - -
24/06:30pm 11.7 SW 15 18 1022.2 - 0.0 - - - - - - -
24/06:00pm 11.7 SW 15 17 1021.7 - 0.0 - - - - - - -
24/05:30pm 11.8 SW 19 22 1021.1 - 0.0 - - - - - - -
24/05:00pm 12.0 SSW 21 25 1020.6 - 0.0 - - - - - - -
24/04:30pm 12.6 SW 20 24 1020.2 - 0.0 - - - - - - -
24/04:00pm 13.0 SW 19 23 1019.8 - 0.0 - - - - - - -
24/03:30pm 12.9 SW 18 22 1019.6 - 0.0 - - - - - - -
24/03:00pm 12.6 SW 18 23 1019.5 - 0.0 - - - - - - -
24/02:30pm 12.2 SW 20 26 1019.4 - 0.0 - - - - - - -
24/02:00pm 12.4 SW 23 28 1019.2 - 0.0 - - - - - - -
24/01:30pm 13.4 SW 22 30 1018.8 - 0.0 - - - - - - -
24/01:00pm 13.7 SW 19 23 1018.7 - 0.0 - - - - - - -
24/12:30pm 13.7 SW 23 28 1018.7 - 0.0 - - - - - - -
24/12:00pm 13.3 SW 23 28 1019.0 - 0.0 - - - - - - -
24/11:30am 13.2 SW 23 28 1019.2 - 0.0 - - - - - - -
24/11:00am 13.0 SW 21 25 1019.3 - 0.0 - - - - - - -
24/10:30am 12.7 SW 21 25 1019.3 - 0.0 - - - - - - -
24/10:00am 12.2 WSW 20 26 1019.5 - 0.0 - - - - - - -
24/09:30am 11.8 WSW 19 23 1019.4 - 0.0 - - - - - - -
24/09:00am 11.4 WSW 23 28 1019.0 - 0.0 - - - - - - -
24/08:30am 11.2 WSW 22 29 1018.8 - 0.0 - - - - - - -
24/08:00am 10.8 SW 18 24 1018.8 - 0.0 - - - - - - -
24/07:30am 10.5 SW 20 26 1018.6 - 0.0 - - - - - - -
24/07:00am 10.2 SW 21 26 1018.2 - 0.0 - - - - - - -
24/06:30am 10.4 WSW 22 27 1018.1 - 0.0 - - - - - - -
24/06:00am 10.3 WSW 20 24 1017.6 - 0.0 - - - - - - -
24/05:30am 10.3 WSW 21 24 1017.5 - 0.0 - - - - - - -
24/05:00am 10.8 WSW 23 27 1016.9 - 0.0 - - - - - - -
24/04:30am 10.8 WSW 19 23 1017.0 - 0.0 - - - - - - -
24/04:00am 10.6 WSW 17 21 1016.9 - 0.0 - - - - - - -
24/03:30am 10.7 WSW 18 27 1016.8 - 0.0 - - - - - - -
24/03:00am 10.6 SW 17 25 1016.8 - 0.0 - - - - - - -
24/02:30am 11.0 SW 14 19 1016.9 - 0.0 - - - - - - -
24/02:00am 11.0 SW 13 19 1017.1 - 0.0 - - - - - - -
24/01:30am 11.3 WSW 14 18 1017.0 - 0.0 - - - - - - -
24/01:00am 11.6 WSW 16 20 1017.1 - 0.0 - - - - - - -
24/12:30am 11.7 W 13 16 1017.2 - 0.0 - - - - - - -
24/12:00am 11.3 W 8 10 1017.1 - 0.0 - - - - - - -
 
Date/Time
EST
Temp
°C
Wind Pressure Rain since
9am
mm
Weather Cloud Vis
km
Sea
Height
m
Swell
Dir  Spd
kts
Gust
kts
hPa Trend Height
m
Period
s
Dir
23/11:30pm 12.4 WNW 4 7 1016.9 - 0.0 - - - - - - -
23/11:00pm 12.6 NNW 9 11 1016.7 - 0.0 - - - - - - -
23/10:30pm 13.1 NNW 9 12 1016.7 - 0.0 - - - - - - -
23/10:00pm 13.5 NNW 11 15 1016.8 - 0.0 - - - - - - -
23/09:30pm 12.5 NNW 11 13 1016.8 - 0.0 - - - - - - -
23/09:00pm 12.7 N 8 10 1016.7 - 0.0 - - - - - - -
23/08:30pm 12.7 N 6 7 1016.7 - 0.0 - - - - - - -
23/08:00pm 13.2 N 6 7 1016.8 - 0.0 - - - - - - -
23/07:30pm 12.7 WNW 2 3 1016.9 - 0.0 - - - - - - -
23/07:00pm 13.2 CALM 0 0 1016.8 - 0.0 - - - - - - -
23/06:30pm 13.4 CALM 0 0 1016.8 - 0.0 - - - - - - -
23/06:00pm 13.5 CALM 0 1 1016.7 - 0.0 - - - - - - -
23/05:30pm 13.8 SE 3 4 1016.5 - 0.0 - - - - - - -
23/05:00pm 14.2 SSE 7 8 1016.2 - 0.0 - - - - - - -
23/04:30pm 15.1 SSE 9 10 1015.9 - 0.0 - - - - - - -
23/04:00pm 15.0 SSE 11 12 1015.9 - 0.0 - - - - - - -
23/03:30pm 15.9 SSE 13 15 1015.9 - 0.0 - - - - - - -
23/03:00pm 15.7 S 15 17 1015.9 - 0.0 - - - - - - -
23/02:30pm 15.5 S 16 18 1015.9 - 0.0 - - - - - - -
23/02:00pm 16.4 S 16 18 1016.0 - 0.0 - - - - - - -
23/01:30pm 16.9 SSE 12 16 1016.4 - 0.0 - - - - - - -
23/01:00pm 17.1 SSE 8 9 1016.7 - 0.0 - - - - - - -
23/12:30pm 19.3 SE 4 6 1017.0 - 0.0 - - - - - - -
23/12:00pm 17.7 SSW 3 4 1017.3 - 0.0 - - - - - - -
23/11:30am 15.9 W 5 6 1017.7 - 0.0 - - - - - - -
23/11:00am 14.8 W 8 9 1018.2 - 0.0 - - - - - - -
23/10:30am 13.9 W 8 9 1018.3 - 0.0 - - - - - - -
23/10:00am 13.1 W 5 7 1018.5 - 0.0 - - - - - - -
23/09:30am 11.3 WNW 7 9 1018.7 - 0.0 - - - - - - -
23/09:00am 10.3 WNW 8 11 1018.7 - 0.0 - - - - - - -
23/08:30am 9.2 WNW 9 13 1018.7 - 0.0 - - - - - - -
23/08:00am 9.3 W 6 8 1018.6 - 0.0 - - - - - - -
23/07:30am 8.4 WNW 9 11 1018.7 - 0.0 - - - - - - -
23/07:00am 8.3 W 8 9 1018.5 - 0.0 - - - - - - -
23/06:30am 8.5 WNW 7 8 1018.5 - 0.0 - - - - - - -
23/06:00am 8.3 W 9 11 1018.6 - 0.0 - - - - - - -
23/05:30am 8.4 WNW 9 11 1018.5 - 0.0 - - - - - - -
23/05:00am 8.7 W 7 8 1018.5 - 0.0 - - - - - - -
23/04:30am 8.7 W 6 7 1018.6 - 0.0 - - - - - - -
23/04:00am 8.6 WNW 6 7 1018.8 - 0.0 - - - - - - -
23/03:30am 8.7 WNW 6 7 1018.8 - 0.0 - - - - - - -
23/03:00am 8.9 W 6 7 1018.9 - 0.0 - - - - - - -
23/02:30am 8.7 W 6 7 1018.9 - 0.0 - - - - - - -
23/02:00am 9.2 W 5 5 1019.1 - 0.0 - - - - - - -
23/01:30am 9.6 W 5 6 1019.3 - 0.0 - - - - - - -
23/01:00am 9.6 W 4 5 1019.4 - 0.0 - - - - - - -
23/12:30am 9.8 W 5 7 1019.6 - 0.0 - - - - - - -
23/12:00am 9.9 W 5 6 1019.6 - 0.0 - - - - - - -
 
Date/Time
EST
Temp
°C
Wind Pressure Rain since
9am
mm
Weather Cloud Vis
km
Sea
Height
m
Swell
Dir  Spd
kts
Gust
kts
hPa Trend Height
m
Period
s
Dir
22/11:30pm 9.9 WNW 4 6 1019.7 - 0.0 - - - - - - -
22/11:00pm 10.2 W 5 6 1019.9 - 0.0 - - - - - - -
22/10:30pm 10.6 WNW 5 7 1020.1 - 0.0 - - - - - - -
22/10:00pm 11.2 NW 3 5 1020.2 - 0.0 - - - - - - -
22/09:30pm 11.4 N 4 5 1020.2 - 0.0 - - - - - - -
22/09:00pm 11.4 N 4 6 1020.1 - 0.0 - - - - - - -
22/08:30pm 11.1 N 5 7 1020.1 - 0.0 - - - - - - -
22/08:00pm 11.3 WNW 4 5 1020.2 - 0.0 - - - - - - -
22/07:30pm 12.2 N 4 5 1019.9 - 0.0 - - - - - - -
22/07:00pm 12.5 N 2 4 1019.9 - 0.0 - - - - - - -
22/06:30pm 13.2 ENE 3 5 1019.9 - 0.0 - - - - - - -
22/06:00pm 13.0 E 2 3 1019.8 - 0.0 - - - - - - -
22/05:30pm 13.1 ESE 3 4 1019.3 - 0.0 - - - - - - -
22/05:00pm 13.9 E 3 4 1019.0 - 0.0 - - - - - - -
22/04:30pm 14.2 ESE 5 5 1018.7 - 0.0 - - - - - - -
22/04:00pm 14.8 ESE 4 5 1018.5 - 0.0 - - - - - - -
22/03:30pm 15.5 E 4 5 1018.3 - 0.0 - - - - - - -
22/03:00pm 16.3 ENE 4 5 1018.2 - 0.0 - - - - - - -
22/02:30pm 16.5 ENE 6 7 1018.1 - 0.0 - - - - - - -
22/02:00pm 16.5 ENE 6 8 1018.1 - 0.0 - - - - - - -
22/01:30pm 16.5 NE 6 7 1018.3 - 0.0 - - - - - - -
22/01:00pm 16.4 ENE 5 7 1018.3 - 0.0 - - - - - - -
22/12:30pm 16.7 NE 6 8 1018.6 - 0.0 - - - - - - -
22/12:00pm 17.4 SSE 4 8 1019.1 - 0.0 - - - - - - -
22/11:30am 16.0 CALM 0 0 1019.4 - 0.0 - - - - - - -
22/11:00am 14.7 W 3 4 1019.7 - 0.0 - - - - - - -
22/10:30am 13.8 WSW 4 5 1019.7 - 0.0 - - - - - - -
22/10:00am 13.1 W 5 6 1019.5 - 0.0 - - - - - - -
22/09:30am 12.2 W 6 8 1019.4 - 0.0 - - - - - - -
22/09:00am 11.7 WNW 8 11 1019.4 - 0.0 - - - - - - -
22/08:30am 11.1 W 6 7 1019.1 - 0.0 - - - - - - -
22/08:00am 10.5 W 8 9 1019.0 - 0.0 - - - - - - -
22/07:30am 10.0 W 8 9 1018.8 - 0.0 - - - - - - -
22/07:00am 10.0 W 9 9 1018.6 - 0.0 - - - - - - -
22/06:30am 9.6 W 8 9 1018.1 - 0.0 - - - - - - -
22/06:00am 9.6 W 9 10 1017.9 - 0.0 - - - - - - -
22/05:30am 9.4 W 6 7 1017.5 - 0.0 - - - - - - -
22/05:00am 8.9 WNW 7 9 1017.4 - 0.0 - - - - - - -
22/04:30am 8.9 W 8 10 1017.2 - 0.0 - - - - - - -
22/04:00am 8.9 W 7 8 1017.0 - 0.0 - - - - - - -
22/03:30am 9.0 W 6 7 1016.7 - 0.0 - - - - - - -
22/03:00am 9.5 W 7 8 1016.7 - 0.0 - - - - - - -
22/02:30am 10.0 WNW 6 6 1016.8 - 0.0 - - - - - - -
22/02:00am 10.3 WNW 4 6 1017.0 - 0.0 - - - - - - -
22/01:30am 10.3 WNW 4 7 1017.3 - 0.0 - - - - - - -
22/01:00am 10.3 WNW 6 8 1017.5 - 0.0 - - - - - - -
22/12:30am 10.1 W 9 10 1017.5 - 0.0 - - - - - - -
22/12:00am 10.2 W 7 9 1017.6 - 0.0 - - - - - - -
 
Date/Time
EST
Temp
°C
Wind Pressure Rain since
9am
mm
Weather Cloud Vis
km
Sea
Height
m
Swell
Dir  Spd
kts
Gust
kts
hPa Trend Height
m
Period
s
Dir
21/11:30pm 9.9 W 4 7 1017.8 - 0.0 - - - - - - -
21/11:00pm 10.2 W 5 6 1017.7 - 0.0 - - - - - - -
21/10:30pm 10.5 WNW 5 7 1017.6 - 0.0 - - - - - - -
21/10:00pm 10.7 WNW 6 8 1017.4 - 0.0 - - - - - - -
21/09:30pm 10.8 W 7 9 1017.4 - 0.0 - - - - - - -
21/09:00pm 11.1 WSW 7 9 1017.3 - 0.0 - - - - - - -

Other Formats:

Comma delimited format used in spreadsheet applications
http://www.bom.gov.au/fwo/IDN60701/IDN60701.94934.axf

JavaScript Object Notation format (JSON) in row-major order
http://www.bom.gov.au/fwo/IDN60701/IDN60701.94934.json